Time;durP1;ratioP1;P1;durP2;ratioP2;P2;SDS_P1;SDS_P2;PMS_P1;PMS_P2;Temp;Humidity;BMP_temperature;BMP_pressure;BME280_temperature;BME280_humidity;BME280_pressure;Samples;Min_cycle;Max_cycle;Signal;HPM_P1;HPM_P2
2022/03/03 00:01:40;;;;;;;1.67;1.58;;;;;;;16.81;41.53;102104.94;5103668;28;20028;-42
2022/03/03 00:04:05;;;;;;;2.15;1.70;;;;;;;16.80;41.38;102111.28;5102756;28;20027;-42
2022/03/03 00:06:31;;;;;;;2.40;2.00;;;;;;;16.78;41.39;102107.88;5103593;28;20165;-44
2022/03/03 00:08:56;;;;;;;2.10;1.50;;;;;;;16.77;41.14;102113.38;5103281;28;20038;-41
2022/03/03 00:11:21;;;;;;;1.85;1.67;;;;;;;16.74;41.44;102111.81;5103321;28;20060;-44
2022/03/03 00:13:46;;;;;;;2.00;1.60;;;;;;;16.72;41.42;102101.16;5102506;28;20038;-43
2022/03/03 00:16:12;;;;;;;2.03;1.83;;;;;;;16.70;41.40;102096.88;5103650;28;20024;-45
2022/03/03 00:18:37;;;;;;;2.20;1.70;;;;;;;16.70;41.47;102100.41;5103435;28;20034;-44
2022/03/03 00:21:03;;;;;;;2.20;1.77;;;;;;;16.65;41.25;102094.56;5103683;28;20032;-42
2022/03/03 00:23:28;;;;;;;1.83;1.65;;;;;;;16.67;41.47;102107.88;5103269;28;20047;-46
2022/03/03 00:25:54;;;;;;;1.60;1.30;;;;;;;16.65;41.79;102099.94;5103722;28;20032;-42
2022/03/03 00:28:19;;;;;;;1.63;1.52;;;;;;;16.64;41.40;102098.22;5102861;28;20032;-46
2022/03/03 00:30:44;;;;;;;1.83;1.50;;;;;;;16.62;41.37;102089.44;5104787;28;20019;-44
2022/03/03 00:33:09;;;;;;;2.45;1.90;;;;;;;16.61;41.44;102094.91;5107339;28;20043;-44
2022/03/03 00:35:35;;;;;;;1.60;1.50;;;;;;;16.59;41.59;102094.22;5107422;28;20020;-44
2022/03/03 00:38:00;;;;;;;1.88;1.67;;;;;;;16.58;41.46;102095.19;5107062;28;20028;-46
2022/03/03 00:40:25;;;;;;;1.67;1.38;;;;;;;16.57;41.46;102093.50;5107096;28;20050;-42
2022/03/03 00:42:50;;;;;;;2.00;1.80;;;;;;;16.56;41.50;102089.06;5106289;28;20028;-42
2022/03/03 00:45:16;;;;;;;1.73;1.58;;;;;;;16.54;41.42;102089.22;5106647;28;20047;-43
2022/03/03 00:47:41;;;;;;;2.25;1.70;;;;;;;16.53;41.66;102087.50;5107239;28;20515;-42
2022/03/03 00:50:07;;;;;;;1.70;1.60;;;;;;;16.52;41.39;102088.47;5106615;28;20043;-44
2022/03/03 00:52:32;;;;;;;2.20;2.00;;;;;;;16.49;41.43;102091.41;5106485;28;20024;-44
2022/03/03 00:54:57;;;;;;;1.98;1.80;;;;;;;16.49;41.51;102089.59;5107180;28;20028;-42
2022/03/03 00:57:22;;;;;;;2.08;1.88;;;;;;;16.48;41.41;102093.25;5106585;28;20027;-42
2022/03/03 00:59:48;;;;;;;1.88;1.75;;;;;;;16.45;41.46;102082.75;5105922;28;20044;-43
2022/03/03 01:02:13;;;;;;;1.55;1.45;;;;;;;16.43;41.46;102086.53;5106767;28;20039;-43
2022/03/03 01:04:39;;;;;;;1.98;1.80;;;;;;;16.39;41.53;102079.69;5106818;28;20028;-41
2022/03/03 01:07:05;;;;;;;1.95;1.85;;;;;;;16.41;41.43;102080.44;5106358;28;20423;-45
2022/03/03 01:09:30;;;;;;;2.17;1.70;;;;;;;16.40;41.66;102079.59;5106523;28;20036;-43
2022/03/03 01:11:56;;;;;;;1.73;1.63;;;;;;;16.39;41.40;102077.00;5106187;28;20024;-44
2022/03/03 01:14:23;;;;;;;1.52;1.42;;;;;;;16.38;41.47;102072.63;5105674;28;20189;-43
2022/03/03 01:16:50;;;;;;;3.08;2.00;;;;;;;16.38;41.49;102072.63;5106891;28;20024;-43
2022/03/03 01:19:15;;;;;;;2.10;1.90;;;;;;;16.36;41.42;102069.22;5106308;28;20071;-40
2022/03/03 01:21:40;;;;;;;2.60;1.90;;;;;;;16.35;41.45;102072.88;5106309;28;20019;-44
2022/03/03 01:24:06;;;;;;;1.70;1.60;;;;;;;16.33;41.51;102058.75;5106434;28;20036;-43
2022/03/03 01:26:31;;;;;;;2.30;1.90;;;;;;;16.32;41.53;102063.25;5104795;28;20420;-42
2022/03/03 01:28:56;;;;;;;2.28;1.90;;;;;;;16.31;41.51;102060.69;5104167;28;20088;-44
2022/03/03 01:31:22;;;;;;;1.70;1.60;;;;;;;16.26;41.56;102053.00;5105010;28;20028;-42
2022/03/03 01:33:47;;;;;;;1.95;1.70;;;;;;;16.28;41.34;102061.78;5104870;28;20384;-42
2022/03/03 01:36:12;;;;;;;2.75;2.10;;;;;;;16.28;41.36;102058.25;5106419;28;20017;-43
2022/03/03 01:38:37;;;;;;;1.77;1.40;;;;;;;16.25;41.62;102052.16;5105583;28;20032;-45
2022/03/03 01:41:03;;;;;;;2.03;1.80;;;;;;;16.25;41.56;102056.66;5106047;28;20020;-42
2022/03/03 01:43:28;;;;;;;2.05;1.85;;;;;;;16.23;41.51;102048.75;5105215;28;20038;-43
2022/03/03 01:45:53;;;;;;;2.13;1.92;;;;;;;16.23;41.51;102046.06;5105676;28;20039;-42
2022/03/03 01:48:18;;;;;;;2.15;1.95;;;;;;;16.21;41.57;102045.31;5105700;28;20024;-44
2022/03/03 01:50:45;;;;;;;2.08;1.88;;;;;;;16.20;41.53;102050.81;5106063;28;20096;-46
2022/03/03 01:53:10;;;;;;;2.00;1.80;;;;;;;16.19;41.97;102044.59;5105658;28;20028;-43
2022/03/03 01:55:36;;;;;;;1.90;1.80;;;;;;;16.19;41.46;102049.13;5105853;28;20024;-44
2022/03/03 01:58:03;;;;;;;2.50;2.30;;;;;;;16.18;41.44;102040.22;5104656;28;20052;-41
2022/03/03 02:00:28;;;;;;;2.00;1.80;;;;;;;16.17;41.54;102043.84;5105393;28;20392;-43
2022/03/03 02:02:53;;;;;;;2.15;1.98;;;;;;;16.17;41.40;102041.19;5105803;28;20032;-44
2022/03/03 02:05:19;;;;;;;1.92;1.70;;;;;;;16.16;41.45;102036.78;5105611;28;20047;-43
2022/03/03 02:07:44;;;;;;;3.03;2.20;;;;;;;16.12;41.35;102026.44;5105239;28;20033;-44
2022/03/03 02:10:09;;;;;;;1.80;1.70;;;;;;;16.14;41.40;102030.72;5105430;28;20051;-46
2022/03/03 02:12:35;;;;;;;2.60;2.08;;;;;;;16.13;41.49;102030.81;5104657;28;20057;-43
2022/03/03 02:15:01;;;;;;;2.35;2.00;;;;;;;16.05;41.58;102020.69;5105213;28;20059;-44
2022/03/03 02:17:26;;;;;;;2.10;1.90;;;;;;;16.08;41.30;102017.78;5105493;28;20043;-43
2022/03/03 02:19:51;;;;;;;2.53;2.20;;;;;;;16.10;41.36;102009.59;5105178;28;20023;-44
2022/03/03 02:22:16;;;;;;;2.13;1.92;;;;;;;16.10;41.46;102023.00;5105081;28;20097;-45
2022/03/03 02:24:43;;;;;;;2.00;1.90;;;;;;;16.07;41.39;102015.22;5105362;28;20028;-44
2022/03/03 02:27:10;;;;;;;2.28;2.08;;;;;;;16.08;41.34;102020.44;5104738;28;20085;-43
2022/03/03 02:29:35;;;;;;;3.03;2.03;;;;;;;16.01;41.42;102000.44;5104263;28;20104;-44
2022/03/03 02:32:05;;;;;;;1.83;1.73;;;;;;;16.05;41.47;102004.59;5103907;28;20036;-44
2022/03/03 02:34:31;;;;;;;2.40;2.15;;;;;;;16.05;41.33;102007.28;5104913;28;20024;-44
2022/03/03 02:36:56;;;;;;;2.17;1.95;;;;;;;16.05;41.29;102004.59;5105078;28;20055;-43
2022/03/03 02:39:21;;;;;;;2.67;2.00;;;;;;;16.05;41.31;102009.97;5104554;28;20036;-41
2022/03/03 02:41:47;;;;;;;1.90;1.80;;;;;;;16.03;41.28;102006.56;5104749;28;20031;-42
2022/03/03 02:44:12;;;;;;;2.28;2.08;;;;;;;16.02;41.34;102004.88;5104141;28;20028;-41
2022/03/03 02:46:37;;;;;;;2.03;1.83;;;;;;;16.02;41.37;102006.69;5084276;28;20060;-41
2022/03/03 02:49:04;;;;;;;1.98;1.80;;;;;;;15.99;41.41;102003.25;5093766;28;20085;-45
2022/03/03 02:51:30;;;;;;;2.42;2.00;;;;;;;15.98;41.38;101996.19;5086784;28;20051;-42
2022/03/03 02:53:55;;;;;;;2.45;2.05;;;;;;;15.97;41.36;102004.34;5103124;28;20016;-46
2022/03/03 02:56:20;;;;;;;2.38;2.17;;;;;;;15.95;41.36;101999.13;5104625;28;20104;-46
2022/03/03 02:58:45;;;;;;;2.40;2.20;;;;;;;15.96;41.43;102005.34;5103547;28;20051;-41
2022/03/03 03:01:11;;;;;;;2.47;2.08;;;;;;;15.88;41.27;101997.03;5103087;28;20116;-44
2022/03/03 03:03:37;;;;;;;2.50;2.20;;;;;;;15.93;41.19;102003.78;5104400;28;20057;-44
2022/03/03 03:06:03;;;;;;;3.17;2.05;;;;;;;15.94;41.30;102001.94;5104354;28;20074;-45
2022/03/03 03:08:29;;;;;;;2.00;1.80;;;;;;;15.93;41.59;101989.50;5102579;28;20020;-43
2022/03/03 03:10:54;;;;;;;2.55;2.35;;;;;;;15.91;41.32;101991.44;5102820;28;20043;-42
2022/03/03 03:13:19;;;;;;;2.33;2.13;;;;;;;15.90;41.46;101987.06;5103257;28;20054;-43
2022/03/03 03:15:45;;;;;;;2.25;2.05;;;;;;;15.89;41.51;101991.56;5083603;28;20074;-42
2022/03/03 03:18:15;;;;;;;2.75;2.13;;;;;;;15.88;41.50;101989.00;5084084;28;20036;-43
2022/03/03 03:20:42;;;;;;;2.40;2.20;;;;;;;15.87;41.56;101987.31;5084120;28;20104;-42
2022/03/03 03:23:11;;;;;;;2.20;2.00;;;;;;;15.85;41.60;101979.38;5083634;28;20087;-44
2022/03/03 03:25:37;;;;;;;2.37;2.07;;;;;;;15.84;41.45;101980.34;5083856;28;20017;-43
2022/03/03 03:28:05;;;;;;;2.33;1.60;;;;;;;15.84;41.58;101972.28;5083165;28;20024;-42
2022/03/03 03:30:30;;;;;;;2.20;1.95;;;;;;;15.82;41.51;101970.72;5083480;28;20032;-42
2022/03/03 03:32:56;;;;;;;2.10;1.90;;;;;;;15.73;41.52;101949.03;5083915;28;20048;-41
2022/03/03 03:35:21;;;;;;;2.10;1.90;;;;;;;15.82;41.50;101968.91;5084010;28;20037;-43
2022/03/03 03:37:46;;;;;;;2.20;2.00;;;;;;;15.75;41.56;101954.25;5083600;28;20054;-42
2022/03/03 03:40:12;;;;;;;2.05;1.85;;;;;;;15.80;41.56;101961.94;5083775;28;20072;-42
2022/03/03 03:42:38;;;;;;;2.08;1.88;;;;;;;15.79;41.55;101966.44;5092836;28;20109;-42
2022/03/03 03:45:04;;;;;;;2.28;2.08;;;;;;;15.72;41.45;101950.03;5103555;28;20032;-43
2022/03/03 03:47:29;;;;;;;2.20;2.03;;;;;;;15.73;41.61;101951.72;5103897;28;20024;-42
2022/03/03 03:49:55;;;;;;;2.00;1.80;;;;;;;15.75;41.61;101952.44;5104001;28;20016;-44
2022/03/03 03:52:20;;;;;;;2.40;1.90;;;;;;;15.74;41.49;101958.78;5103728;28;20032;-47
2022/03/03 03:54:45;;;;;;;1.85;1.75;;;;;;;15.72;41.56;101960.75;5103843;28;20054;-44
2022/03/03 03:57:10;;;;;;;1.95;1.75;;;;;;;15.69;41.68;101960.13;5103556;28;20046;-45
2022/03/03 03:59:36;;;;;;;1.95;1.85;;;;;;;15.69;41.68;101950.25;5102501;28;20063;-45
2022/03/03 04:02:01;;;;;;;2.25;2.05;;;;;;;15.71;41.58;101950.13;5103710;28;20027;-41
2022/03/03 04:04:26;;;;;;;2.33;2.03;;;;;;;15.70;41.53;101943.91;5103809;28;20034;-42
2022/03/03 04:06:51;;;;;;;2.03;1.77;;;;;;;15.63;41.49;101931.97;5106210;28;20028;-42
2022/03/03 04:09:16;;;;;;;2.13;1.92;;;;;;;15.69;41.63;101941.34;5107423;28;20097;-42
2022/03/03 04:11:42;;;;;;;2.15;1.88;;;;;;;15.66;41.63;101934.41;5107068;28;20028;-41
2022/03/03 04:14:07;;;;;;;2.22;2.03;;;;;;;15.59;41.67;101927.81;5105406;28;20032;-41
2022/03/03 04:16:32;;;;;;;2.53;2.00;;;;;;;15.68;41.65;101939.66;5106717;28;20030;-42
2022/03/03 04:18:58;;;;;;;1.75;1.65;;;;;;;15.67;41.66;101944.19;5107575;28;20024;-42
2022/03/03 04:21:23;;;;;;;2.33;1.95;;;;;;;15.67;41.72;101945.97;5106400;28;20020;-41
2022/03/03 04:23:48;;;;;;;1.83;1.73;;;;;;;15.65;41.68;101940.75;5107475;28;20560;-41
2022/03/03 04:26:13;;;;;;;2.47;2.17;;;;;;;15.63;41.57;101934.63;5107014;28;20028;-40
2022/03/03 04:28:39;;;;;;;2.20;2.00;;;;;;;15.60;41.53;101934.88;5106666;28;20028;-41
2022/03/03 04:31:04;;;;;;;2.30;2.10;;;;;;;15.59;41.59;101935.84;5107253;28;20115;-41
2022/03/03 04:33:29;;;;;;;2.20;2.00;;;;;;;15.62;41.67;101950.81;5107542;28;20031;-41
2022/03/03 04:35:56;;;;;;;2.20;1.98;;;;;;;15.61;41.35;101947.28;5107362;28;20024;-42
2022/03/03 04:38:21;;;;;;;2.20;2.00;;;;;;;15.59;41.71;101945.69;5106955;28;20023;-44
2022/03/03 04:40:47;;;;;;;2.90;1.80;;;;;;;15.59;41.66;101938.53;5107296;28;20030;-41
2022/03/03 04:43:12;;;;;;;2.47;2.28;;;;;;;15.59;41.66;101937.66;5106379;28;20023;-41
2022/03/03 04:45:37;;;;;;;2.13;1.90;;;;;;;15.58;41.63;101941.31;5106849;28;20031;-44
2022/03/03 04:48:03;;;;;;;2.20;2.00;;;;;;;15.52;41.63;101925.72;5107169;28;20024;-44
2022/03/03 04:50:30;;;;;;;2.40;2.20;;;;;;;15.56;41.67;101935.25;5107190;28;20028;-46
2022/03/03 04:52:55;;;;;;;2.53;2.08;;;;;;;15.55;41.67;101936.19;5106816;28;20047;-44
2022/03/03 04:55:20;;;;;;;2.35;2.15;;;;;;;15.55;41.65;101938.88;5107175;28;20035;-42
2022/03/03 04:57:45;;;;;;;2.25;2.05;;;;;;;15.52;41.73;101936.47;5104242;28;20035;-44
2022/03/03 05:00:11;;;;;;;2.40;2.20;;;;;;;15.52;41.54;101934.63;5104225;28;20032;-42
2022/03/03 05:02:36;;;;;;;2.40;2.08;;;;;;;15.51;41.55;101935.59;5105604;28;20024;-42
2022/03/03 05:05:02;;;;;;;2.35;1.92;;;;;;;15.52;41.60;101939.13;5104503;28;20020;-40
2022/03/03 05:07:28;;;;;;;2.45;2.03;;;;;;;15.49;41.37;101935.72;5104022;28;20067;-43
2022/03/03 05:09:53;;;;;;;2.20;2.00;;;;;;;15.45;41.58;101928.03;5104013;28;20081;-42
2022/03/03 05:12:18;;;;;;;2.28;2.08;;;;;;;15.49;41.72;101937.53;5086885;28;20051;-41
2022/03/03 05:14:43;;;;;;;2.38;2.05;;;;;;;15.50;41.63;101936.56;5104458;28;20024;-43
2022/03/03 05:17:09;;;;;;;2.33;2.10;;;;;;;15.49;41.63;101924.13;5105149;28;20053;-42
2022/03/03 05:19:34;;;;;;;2.33;1.85;;;;;;;15.49;41.77;101932.19;5105340;28;20079;-43
2022/03/03 05:21:59;;;;;;;2.13;1.92;;;;;;;15.49;41.56;101924.13;5105451;28;20020;-43
2022/03/03 05:24:24;;;;;;;2.72;1.95;;;;;;;15.48;41.57;101930.47;5105223;28;20035;-42
2022/03/03 05:26:50;;;;;;;2.42;2.05;;;;;;;15.48;41.54;101933.16;5104791;28;20032;-43
2022/03/03 05:29:16;;;;;;;2.65;2.30;;;;;;;15.39;41.62;101924.03;5104147;28;20055;-45
2022/03/03 05:31:41;;;;;;;2.15;1.95;;;;;;;15.45;41.58;101934.25;5105199;28;20024;-44
2022/03/03 05:34:06;;;;;;;2.50;2.15;;;;;;;15.44;41.68;101932.53;5105494;28;20072;-42
2022/03/03 05:36:37;;;;;;;2.58;2.30;;;;;;;15.44;41.62;101953.13;5104354;28;20023;-42
2022/03/03 05:39:02;;;;;;;2.53;2.33;;;;;;;15.42;41.54;101957.75;5097998;28;20059;-45
2022/03/03 05:41:27;;;;;;;2.55;2.35;;;;;;;15.36;41.64;101945.69;5103821;28;20416;-41
2022/03/03 05:43:53;;;;;;;2.72;2.25;;;;;;;15.44;41.61;101967.38;5103604;28;20067;-42
2022/03/03 05:46:18;;;;;;;2.10;1.90;;;;;;;15.44;41.70;101971.91;5101427;28;20024;-44
2022/03/03 05:48:43;;;;;;;2.63;2.42;;;;;;;15.43;41.60;101964.84;5101783;28;20074;-43
2022/03/03 05:51:10;;;;;;;2.45;2.25;;;;;;;15.43;41.64;101964.84;5103112;28;20043;-44
2022/03/03 05:53:35;;;;;;;2.42;2.00;;;;;;;15.44;41.53;101962.03;5102998;28;20111;-43
2022/03/03 05:56:06;;;;;;;2.50;2.17;;;;;;;15.41;41.58;101945.31;5097149;28;20032;-41
2022/03/03 05:58:46;;;;;;;2.67;2.15;;;;;;;15.46;41.64;101949.38;5065938;28;1007056;-45
2022/03/03 06:01:13;;;;;;;2.40;2.20;;;;;;;15.45;41.64;101950.31;5103583;28;20067;-44
2022/03/03 06:03:39;;;;;;;3.30;2.75;;;;;;;15.46;41.58;101968.13;5102321;28;20036;-43
2022/03/03 06:06:15;;;;;;;4.05;2.97;;;;;;;15.46;41.49;101962.78;5096720;28;20028;-44
2022/03/03 06:09:00;;;;;;;4.82;3.47;;;;;;;15.57;41.37;101969.09;5101760;28;20023;-42
2022/03/03 06:11:26;;;;;;;4.28;3.72;;;;;;;15.62;41.43;101966.91;5097146;28;20032;-44
2022/03/03 06:13:53;;;;;;;4.03;3.38;;;;;;;15.66;41.45;101965.72;5103526;28;20064;-46
2022/03/03 06:16:19;;;;;;;4.28;3.58;;;;;;;15.68;41.33;101969.16;5104146;28;20594;-46
2022/03/03 06:18:45;;;;;;;4.30;3.90;;;;;;;15.66;41.23;101963.03;5102228;28;20087;-42
2022/03/03 06:21:10;;;;;;;4.03;3.60;;;;;;;15.70;41.20;101957.31;5105368;28;20036;-41
2022/03/03 06:23:36;;;;;;;4.32;3.70;;;;;;;15.73;41.16;101970.47;5101570;28;20079;-45
2022/03/03 06:26:04;;;;;;;4.50;4.05;;;;;;;15.77;41.23;101963.06;5100361;28;20115;-42
2022/03/03 06:28:30;;;;;;;4.10;3.42;;;;;;;15.78;41.25;101962.06;5102534;28;20099;-43
2022/03/03 06:30:55;;;;;;;4.43;3.63;;;;;;;15.80;41.17;101957.47;5101998;28;20537;-45
2022/03/03 06:33:21;;;;;;;4.05;3.40;;;;;;;15.81;41.19;101961.84;5104573;28;20012;-42
2022/03/03 06:35:46;;;;;;;4.53;3.72;;;;;;;15.78;41.19;101950.50;5101709;28;20040;-44
2022/03/03 06:38:11;;;;;;;4.40;3.65;;;;;;;15.84;41.31;101955.34;5094119;28;20017;-42
2022/03/03 06:40:36;;;;;;;5.50;4.45;;;;;;;15.85;41.36;101960.63;5098827;28;20047;-48
2022/03/03 06:43:02;;;;;;;6.00;4.43;;;;;;;15.77;41.08;101943.44;5099253;28;20020;-45
2022/03/03 06:45:29;;;;;;;4.88;4.13;;;;;;;15.87;41.23;101949.75;5098366;28;20083;-43
2022/03/03 06:48:00;;;;;;;4.47;3.70;;;;;;;15.88;41.24;101948.78;5103385;28;20051;-42
2022/03/03 06:50:26;;;;;;;5.20;3.90;;;;;;;15.90;41.02;101957.56;5086372;28;20077;-43
2022/03/03 06:52:51;;;;;;;4.93;3.90;;;;;;;15.91;41.18;101961.94;5102825;28;20028;-45
2022/03/03 06:55:24;;;;;;;7.05;4.38;;;;;;;15.94;41.25;101967.91;5104313;28;20084;-44
2022/03/03 06:57:52;;;;;;;4.22;3.80;;;;;;;15.94;41.18;101973.28;5102960;28;20074;-45
2022/03/03 07:00:19;;;;;;;4.53;4.07;;;;;;;15.94;41.18;101967.06;5100725;28;20044;-46
2022/03/03 07:02:46;;;;;;;5.50;4.03;;;;;;;15.96;41.17;101970.47;5095342;28;20020;-44
2022/03/03 07:05:12;;;;;;;5.00;4.03;;;;;;;15.96;41.29;101962.41;5103851;28;20028;-44
2022/03/03 07:07:38;;;;;;;5.97;4.40;;;;;;;15.99;41.15;101973.75;5086176;28;20059;-43
2022/03/03 07:10:03;;;;;;;6.53;4.18;;;;;;;16.01;41.12;101970.94;5101443;28;20038;-45
2022/03/03 07:12:30;;;;;;;4.90;3.78;;;;;;;16.04;41.11;101969.84;5101058;28;20016;-44
2022/03/03 07:14:55;;;;;;;4.32;3.80;;;;;;;16.05;41.08;101964.34;5083330;28;20115;-46
2022/03/03 07:17:44;;;;;;;4.75;3.95;;;;;;;16.12;41.03;101967.41;5103338;28;20028;-45
2022/03/03 07:20:13;;;;;;;4.50;4.03;;;;;;;16.15;41.01;101967.16;5101700;28;20039;-44
2022/03/03 07:22:57;;;;;;;6.25;4.63;;;;;;;16.21;40.83;101978.22;5091797;28;20055;-46
2022/03/03 07:25:27;;;;;;;6.45;4.85;;;;;;;16.28;40.79;101975.06;5093258;28;20035;-42
2022/03/03 07:27:54;;;;;;;5.30;4.30;;;;;;;16.30;40.69;101970.41;5100252;28;20032;-45
2022/03/03 07:30:19;;;;;;;6.03;4.30;;;;;;;16.39;40.58;101970.50;5103597;28;20043;-45
2022/03/03 07:32:54;;;;;;;5.70;4.40;;;;;;;16.48;40.45;101969.78;5101841;28;20024;-43
2022/03/03 07:35:20;;;;;;;8.15;4.32;;;;;;;16.53;40.57;101974.75;5103379;28;20022;-42
2022/03/03 07:37:57;;;;;;;5.32;4.10;;;;;;;16.68;40.13;101981.50;5098996;28;20031;-43
2022/03/03 07:40:27;;;;;;;4.80;4.05;;;;;;;16.82;39.82;101985.78;5100806;28;20020;-47
2022/03/03 07:42:53;;;;;;;5.30;4.10;;;;;;;16.85;39.71;101965.88;5101401;28;20028;-44
2022/03/03 07:45:18;;;;;;;4.93;4.18;;;;;;;16.99;39.54;101979.84;5103352;28;20038;-47
2022/03/03 07:47:44;;;;;;;5.47;4.40;;;;;;;17.10;39.51;101972.69;5098546;28;20056;-46
2022/03/03 07:50:09;;;;;;;5.30;3.78;;;;;;;17.19;39.18;101982.66;5101912;28;20035;-45
2022/03/03 07:52:35;;;;;;;5.53;4.30;;;;;;;17.28;39.15;101983.69;5103338;28;20431;-48
2022/03/03 07:55:00;;;;;;;4.93;4.20;;;;;;;17.37;39.11;101981.06;5103747;28;20024;-45
2022/03/03 07:57:33;;;;;;;4.22;3.75;;;;;;;17.52;38.85;101978.91;5103320;28;20051;-47
2022/03/03 08:00:05;;;;;;;5.68;4.35;;;;;;;17.67;38.44;101984.75;5085797;28;20043;-44
2022/03/03 08:02:32;;;;;;;6.10;3.65;;;;;;;17.77;38.23;101980.34;5098122;28;20092;-45
2022/03/03 08:04:59;;;;;;;4.75;3.83;;;;;;;17.84;38.05;101977.94;5089755;28;20050;-45
2022/03/03 08:07:24;;;;;;;5.57;3.83;;;;;;;17.92;37.64;101976.25;5085437;28;20039;-46
2022/03/03 08:09:52;;;;;;;4.93;3.75;;;;;;;18.11;37.50;101974.66;5097965;28;20033;-45
2022/03/03 08:12:17;;;;;;;6.85;4.18;;;;;;;18.34;36.87;101978.78;5096300;28;20032;-45
2022/03/03 08:14:42;;;;;;;5.53;4.18;;;;;;;18.63;36.35;101976.13;5101673;28;20125;-45
2022/03/03 08:17:12;;;;;;;4.80;3.78;;;;;;;19.01;35.85;101965.53;5097705;28;20046;-45
2022/03/03 08:19:38;;;;;;;5.38;4.07;;;;;;;19.57;34.96;101970.09;5102308;28;20031;-45
2022/03/03 08:22:03;;;;;;;4.75;3.60;;;;;;;20.14;34.10;101981.66;5103092;28;20039;-46
2022/03/03 08:24:28;;;;;;;4.95;3.60;;;;;;;20.58;33.57;101969.16;5102543;28;20101;-44
2022/03/03 08:26:55;;;;;;;5.43;3.17;;;;;;;20.99;32.96;101966.00;5094351;28;20016;-43
2022/03/03 08:29:20;;;;;;;3.90;3.30;;;;;;;21.36;32.34;101963.91;5093457;28;20043;-43
2022/03/03 08:31:49;;;;;;;6.45;3.97;;;;;;;21.81;31.15;101968.22;5099547;28;20031;-47
2022/03/03 08:34:33;;;;;;;;;;;;;;;22.18;30.41;101967.06;5103320;28;20088;-47
2022/03/03 08:37:00;;;;;;;5.20;3.90;;;;;;;22.58;29.89;101971.69;5100075;28;19919;-46
2022/03/03 08:39:29;;;;;;;5.78;4.00;;;;;;;22.85;29.13;101964.25;5098852;28;20051;-48
2022/03/03 08:41:59;;;;;;;4.50;3.53;;;;;;;23.08;28.81;101969.91;5100316;28;20024;-46
2022/03/03 08:44:32;;;;;;;5.90;4.10;;;;;;;23.18;28.65;101967.84;5101920;28;20028;-48
2022/03/03 08:46:58;;;;;;;4.13;3.72;;;;;;;23.26;28.03;101969.69;5102921;28;20024;-44
2022/03/03 08:49:29;;;;;;;4.05;3.53;;;;;;;23.30;28.16;101962.91;5099687;28;20034;-46
2022/03/03 08:51:55;;;;;;;5.45;3.92;;;;;;;23.23;27.86;101941.03;5097440;28;20016;-45
2022/03/03 08:54:21;;;;;;;6.22;3.83;;;;;;;23.38;27.76;101968.31;5105291;28;20054;-47
2022/03/03 08:56:46;;;;;;;5.25;3.45;;;;;;;23.51;27.71;101967.78;5106166;28;20036;-48
2022/03/03 08:59:11;;;;;;;4.45;3.80;;;;;;;23.58;27.49;101952.50;5105457;28;20044;-45
2022/03/03 09:01:37;;;;;;;5.72;3.33;;;;;;;23.77;27.30;101962.97;5103694;28;20022;-46
2022/03/03 09:04:02;;;;;;;5.28;3.75;;;;;;;24.09;27.11;101955.72;5106440;28;20400;-48
2022/03/03 09:06:28;;;;;;;3.70;3.08;;;;;;;24.46;26.63;101959.59;5106641;28;20028;-46
2022/03/03 09:08:53;;;;;;;4.57;2.97;;;;;;;24.77;26.10;101959.56;5105897;28;20024;-44
2022/03/03 09:11:20;;;;;;;4.65;3.28;;;;;;;25.12;25.75;101958.09;5097680;28;20067;-43
2022/03/03 09:13:45;;;;;;;6.00;3.30;;;;;;;25.41;25.32;101960.84;5105297;28;20027;-44
2022/03/03 09:16:10;;;;;;;5.72;3.35;;;;;;;25.69;24.99;101961.03;5105774;28;20080;-46
2022/03/03 09:18:36;;;;;;;4.32;2.53;;;;;;;25.93;24.71;101949.03;5104979;28;20038;-43
2022/03/03 09:21:01;;;;;;;4.03;3.28;;;;;;;26.13;24.50;101957.44;5106676;28;20049;-45
2022/03/03 09:23:26;;;;;;;3.30;2.63;;;;;;;26.32;24.18;101953.25;5106023;28;20081;-43
2022/03/03 09:25:52;;;;;;;6.95;2.97;;;;;;;26.51;23.93;101961.88;5106414;28;20589;-45
2022/03/03 09:28:17;;;;;;;4.10;2.85;;;;;;;26.67;23.65;101959.72;5105145;28;20047;-41
2022/03/03 09:30:42;;;;;;;5.18;2.92;;;;;;;26.82;23.89;101959.66;5105883;28;20032;-41
2022/03/03 09:33:08;;;;;;;3.67;2.63;;;;;;;26.94;23.35;101962.72;5106254;28;20031;-45
2022/03/03 09:35:33;;;;;;;3.50;2.53;;;;;;;27.05;22.96;101953.97;5106231;28;20106;-44
2022/03/03 09:37:59;;;;;;;4.18;2.97;;;;;;;27.16;22.92;101952.63;5105853;28;20016;-41
2022/03/03 09:40:24;;;;;;;4.05;2.97;;;;;;;27.29;22.66;101951.88;5105874;28;20024;-41
2022/03/03 09:43:04;;;;;;;3.35;2.60;;;;;;;27.40;22.62;101954.91;5104629;28;20028;-43
2022/03/03 09:45:30;;;;;;;4.13;2.65;;;;;;;27.47;22.44;101951.34;5105591;28;20028;-42
2022/03/03 09:47:56;;;;;;;3.75;2.65;;;;;;;27.56;22.08;101952.88;5105993;28;20031;-41
2022/03/03 09:50:23;;;;;;;4.43;2.72;;;;;;;27.63;22.22;101951.88;5106001;28;20027;-40
2022/03/03 09:52:49;;;;;;;3.47;2.70;;;;;;;27.71;21.79;101947.28;5105480;28;20028;-41
2022/03/03 09:55:14;;;;;;;3.35;2.70;;;;;;;27.75;21.78;101951.34;5105772;28;20020;-42
2022/03/03 09:57:40;;;;;;;3.00;2.35;;;;;;;27.77;21.55;101946.50;5104688;28;20150;-46
2022/03/03 10:00:08;;;;;;;3.58;2.65;;;;;;;27.48;22.08;101944.84;5103825;28;20046;-44
2022/03/03 10:02:36;;;;;;;3.53;2.60;;;;;;;26.86;22.36;101938.28;5104628;28;20086;-44
2022/03/03 10:05:02;;;;;;;3.17;2.55;;;;;;;26.05;23.39;101934.91;5104133;28;20276;-46
2022/03/03 10:07:28;;;;;;;3.08;2.63;;;;;;;25.29;24.14;101943.28;5105360;28;20055;-43
2022/03/03 10:10:10;;;;;;;3.17;2.83;;;;;;;24.56;24.94;101939.31;5104979;28;20032;-41
2022/03/03 10:12:45;;;;;;;3.90;3.33;;;;;;;23.85;25.89;101948.53;5104342;28;20027;-40
2022/03/03 10:15:14;;;;;;;2.83;2.38;;;;;;;23.31;26.46;101942.91;5105070;28;20034;-40
2022/03/03 10:17:39;;;;;;;3.78;3.10;;;;;;;22.86;27.20;101938.88;5105505;28;20043;-42
2022/03/03 10:20:07;;;;;;;3.45;3.03;;;;;;;22.47;27.77;101942.19;5105117;28;20049;-45
2022/03/03 10:22:58;;;;;;;2.63;2.25;;;;;;;22.12;28.22;101936.03;5105107;28;20024;-45
2022/03/03 10:25:32;;;;;;;3.53;2.65;;;;;;;21.82;28.52;101937.44;5105331;28;20031;-43
2022/03/03 10:28:09;;;;;;;3.30;2.83;;;;;;;21.59;29.06;101949.84;5102894;28;20020;-42
2022/03/03 10:30:50;;;;;;;3.90;3.20;;;;;;;21.37;29.35;101940.44;5104651;28;20417;-43
2022/03/03 10:33:18;;;;;;;3.28;2.60;;;;;;;21.19;29.51;101937.72;5103656;28;20088;-47
2022/03/03 10:35:58;;;;;;;4.13;3.03;;;;;;;21.01;29.96;101935.06;5105069;28;20039;-44
2022/03/03 10:38:23;;;;;;;2.47;2.22;;;;;;;20.88;30.63;101938.19;5104688;28;20389;-42
2022/03/03 10:40:48;;;;;;;3.30;2.60;;;;;;;20.75;30.90;101936.91;5104677;28;20034;-45
2022/03/03 10:43:13;;;;;;;4.43;2.95;;;;;;;20.65;30.98;101937.00;5103840;28;20039;-44
2022/03/03 10:45:55;;;;;;;3.90;2.65;;;;;;;20.55;31.04;101933.50;5104268;28;20412;-44
2022/03/03 10:48:22;;;;;;;3.97;2.65;;;;;;;20.44;31.47;101935.41;5104928;28;20024;-46
2022/03/03 10:50:49;;;;;;;3.42;2.75;;;;;;;20.36;31.51;101942.59;5104496;28;20066;-43
2022/03/03 10:53:18;;;;;;;3.95;3.20;;;;;;;20.29;31.94;101946.88;5104403;28;20024;-42
2022/03/03 10:56:06;;;;;;;3.33;2.80;;;;;;;20.20;32.13;101940.53;5104737;28;20028;-41
2022/03/03 10:58:58;;;;;;;3.95;2.95;;;;;;;20.13;32.18;101942.16;5103578;28;20052;-44
2022/03/03 11:01:27;;;;;;;4.65;3.00;;;;;;;20.05;32.33;101933.94;5104276;28;20063;-43
2022/03/03 11:03:53;;;;;;;4.05;2.92;;;;;;;19.93;32.60;101934.19;5104464;28;20032;-43
2022/03/03 11:06:24;;;;;;;3.85;3.05;;;;;;;19.94;32.57;101943.13;5104283;28;20028;-43
2022/03/03 11:08:50;;;;;;;3.65;2.90;;;;;;;19.88;32.97;101936.47;5103916;28;20101;-43
2022/03/03 11:11:17;;;;;;;3.88;2.78;;;;;;;19.86;33.03;101930.38;5104145;28;20087;-43
2022/03/03 11:13:44;;;;;;;4.45;3.30;;;;;;;19.82;33.24;101928.13;5102796;28;20028;-46
2022/03/03 11:16:10;;;;;;;4.25;3.50;;;;;;;19.79;33.32;101942.75;5103790;28;20030;-45
2022/03/03 11:18:35;;;;;;;4.50;3.10;;;;;;;19.76;33.36;101934.97;5103389;28;20119;-42
2022/03/03 11:21:01;;;;;;;3.55;3.03;;;;;;;19.72;33.52;101931.72;5104256;28;20027;-42
2022/03/03 11:23:39;;;;;;;5.18;3.80;;;;;;;19.67;33.79;101931.31;5096346;28;20043;-42